Terminal Aerodrome Forecast
Issued by NWS

Home | Current Version | Previous Version | Text Only | Print | Product List | Glossary On
Versions: 1 2 3 4 5 6 7 8 9 10 11 12 13 14 15 16 17 18 19 20 21 22
000
FTUS41 KPBZ 250600 AAA
TAFFKL
TAF AMD
KFKL 250655Z 2507/2606 23013G20KT P6SM BKN015
     FM251300 25012G22KT P6SM BKN025
     FM251800 25012KT P6SM BKN025
      AMD LTD TO CLD VIS AND WIND=

USA.gov is the U.S. government's official web portal to all federal, state and local government web resources and services.